Time;durP1;ratioP1;P1;durP2;ratioP2;P2;SDS_P1;SDS_P2;PMS_P1;PMS_P2;Temp;Humidity;BMP_temperature;BMP_pressure;BME280_temperature;BME280_humidity;BME280_pressure;Samples;Min_cycle;Max_cycle;Signal;HPM_P1;HPM_P2
2022/10/24 00:00:28;;;;;;;1.00;1.00;;;;;;;;;;1812810;79;26713;-51
2022/10/24 00:02:56;;;;;;;0.80;0.80;;;;;;;;;;1812709;77;26303;-51
2022/10/24 00:05:24;;;;;;;0.82;0.82;;;;;;;;;;1812710;79;26881;-47
2022/10/24 00:07:52;;;;;;;0.90;0.90;;;;;;;;;;1812622;78;26398;-51
2022/10/24 00:10:20;;;;;;;2.90;1.12;;;;;;;;;;1810825;77;26381;-43
2022/10/24 00:12:47;;;;;;;1.20;1.20;;;;;;;;;;1815800;78;26261;-50
2022/10/24 00:15:15;;;;;;;0.90;0.90;;;;;;;;;;1814897;79;26196;-47
2022/10/24 00:17:42;;;;;;;1.72;0.90;;;;;;;;;;1814127;79;26231;-44
2022/10/24 00:20:11;;;;;;;1.00;1.00;;;;;;;;;;1812316;77;26306;-42
2022/10/24 00:22:38;;;;;;;0.95;0.90;;;;;;;;;;1801642;79;26329;-44
2022/10/24 00:25:06;;;;;;;1.00;0.90;;;;;;;;;;1810171;79;26659;-46
2022/10/24 00:27:34;;;;;;;1.12;1.12;;;;;;;;;;1813628;79;26349;-52
2022/10/24 00:30:03;;;;;;;1.10;1.00;;;;;;;;;;1811011;79;26732;-43
2022/10/24 00:32:30;;;;;;;1.02;1.02;;;;;;;;;;1811428;77;26324;-45
2022/10/24 00:34:58;;;;;;;0.90;0.90;;;;;;;;;;1810921;79;26260;-42
2022/10/24 00:37:25;;;;;;;0.93;0.90;;;;;;;;;;1811980;79;26291;-42
2022/10/24 00:39:52;;;;;;;1.10;1.00;;;;;;;;;;1811101;79;26251;-47
2022/10/24 00:42:19;;;;;;;2.62;1.10;;;;;;;;;;1806353;77;26689;-48
2022/10/24 00:44:49;;;;;;;2.85;1.37;;;;;;;;;;1824905;78;26726;-50
2022/10/24 00:47:17;;;;;;;1.00;1.00;;;;;;;;;;1814787;79;26216;-45
2022/10/24 00:49:52;;;;;;;1.27;1.07;;;;;;;;;;1817219;78;26357;-48
2022/10/24 00:52:21;;;;;;;1.00;1.00;;;;;;;;;;1814806;79;26279;-45
2022/10/24 00:54:50;;;;;;;0.90;0.90;;;;;;;;;;1810414;77;27124;-43
2022/10/24 00:57:22;;;;;;;0.70;0.70;;;;;;;;;;1815570;78;26334;-45
2022/10/24 00:59:51;;;;;;;0.90;0.90;;;;;;;;;;1814225;79;26216;-46
2022/10/24 01:02:18;;;;;;;0.70;0.70;;;;;;;;;;1830845;77;26232;-42
2022/10/24 01:04:47;;;;;;;0.95;0.90;;;;;;;;;;1857255;77;26223;-45
2022/10/24 01:07:18;;;;;;;2.05;0.82;;;;;;;;;;1857783;77;26271;-47
2022/10/24 01:09:50;;;;;;;1.15;1.05;;;;;;;;;;1851846;77;26260;-48
2022/10/24 01:12:24;;;;;;;1.60;1.10;;;;;;;;;;1861291;76;26794;-45
2022/10/24 01:15:12;;;;;;;0.80;0.80;;;;;;;;;;1856122;76;26249;-46
2022/10/24 01:17:46;;;;;;;1.07;1.05;;;;;;;;;;1789970;78;26254;-44
2022/10/24 01:20:30;;;;;;;2.02;1.00;;;;;;;;;;1790792;80;26308;-42
2022/10/24 01:22:59;;;;;;;5.15;1.20;;;;;;;;;;1824371;76;26366;-42
2022/10/24 01:25:28;;;;;;;0.80;0.80;;;;;;;;;;1863407;76;26239;-42
2022/10/24 01:28:02;;;;;;;1.00;1.00;;;;;;;;;;1856675;77;26247;-43
2022/10/24 01:30:31;;;;;;;1.12;1.05;;;;;;;;;;1841228;77;27382;-41
2022/10/24 01:33:03;;;;;;;2.37;0.80;;;;;;;;;;1855531;77;26650;-42
2022/10/24 01:35:35;;;;;;;1.80;1.10;;;;;;;;;;1848006;77;26273;-45
2022/10/24 01:38:14;;;;;;;0.98;0.90;;;;;;;;;;1835342;76;26567;-42
2022/10/24 01:40:47;;;;;;;0.72;0.72;;;;;;;;;;1857046;77;26275;-47
2022/10/24 01:43:15;;;;;;;0.90;0.90;;;;;;;;;;1857739;77;26820;-42
2022/10/24 01:45:44;;;;;;;0.90;0.90;;;;;;;;;;1858069;77;26255;-46
2022/10/24 01:48:13;;;;;;;0.88;0.88;;;;;;;;;;1853173;77;26660;-42
2022/10/24 01:50:41;;;;;;;0.85;0.85;;;;;;;;;;1857985;76;26298;-44
2022/10/24 01:53:09;;;;;;;1.22;1.12;;;;;;;;;;1854330;76;26803;-51
2022/10/24 01:55:37;;;;;;;0.82;0.80;;;;;;;;;;1853232;77;26256;-46
2022/10/24 01:58:06;;;;;;;0.80;0.80;;;;;;;;;;1861752;76;25992;-42
2022/10/24 02:00:33;;;;;;;0.95;0.80;;;;;;;;;;1863450;76;26307;-43
2022/10/24 02:03:02;;;;;;;0.80;0.80;;;;;;;;;;1844744;77;26312;-41
2022/10/24 02:05:31;;;;;;;0.90;0.90;;;;;;;;;;1832607;78;26392;-42
2022/10/24 02:07:59;;;;;;;1.85;0.80;;;;;;;;;;1827045;78;26764;-42
2022/10/24 02:10:31;;;;;;;3.47;1.02;;;;;;;;;;1835214;78;27407;-46
2022/10/24 02:13:03;;;;;;;0.75;0.75;;;;;;;;;;1834338;77;26216;-41
2022/10/24 02:15:32;;;;;;;0.78;0.70;;;;;;;;;;1832431;78;27694;-42
2022/10/24 02:17:59;;;;;;;1.95;1.02;;;;;;;;;;1834940;78;26244;-47
2022/10/24 02:20:34;;;;;;;0.80;0.80;;;;;;;;;;1824654;78;26256;-42
2022/10/24 02:23:03;;;;;;;0.78;0.78;;;;;;;;;;1834246;77;26273;-41
2022/10/24 02:25:31;;;;;;;0.80;0.80;;;;;;;;;;1831221;77;26264;-44
2022/10/24 02:28:10;;;;;;;0.90;0.90;;;;;;;;;;1833102;76;26349;-50
2022/10/24 02:30:39;;;;;;;0.62;0.62;;;;;;;;;;1816991;78;26378;-45
2022/10/24 02:33:07;;;;;;;1.27;0.80;;;;;;;;;;1823457;77;26257;-45
2022/10/24 02:35:36;;;;;;;0.80;0.80;;;;;;;;;;1832097;77;27299;-46
2022/10/24 02:38:05;;;;;;;0.70;0.70;;;;;;;;;;1818876;78;26318;-43
2022/10/24 02:40:32;;;;;;;0.80;0.80;;;;;;;;;;1815937;78;26314;-46
2022/10/24 02:43:00;;;;;;;0.70;0.70;;;;;;;;;;1819464;78;26266;-41
2022/10/24 02:45:29;;;;;;;0.68;0.68;;;;;;;;;;1817830;78;26311;-42
2022/10/24 02:47:57;;;;;;;0.78;0.78;;;;;;;;;;1815309;78;26335;-42
2022/10/24 02:50:25;;;;;;;0.70;0.70;;;;;;;;;;1825454;77;26271;-62
2022/10/24 02:52:52;;;;;;;0.70;0.62;;;;;;;;;;1829017;76;26656;-42
2022/10/24 02:55:20;;;;;;;0.85;0.70;;;;;;;;;;1830210;77;26689;-43
2022/10/24 02:57:47;;;;;;;0.80;0.80;;;;;;;;;;1824788;78;26277;-43
2022/10/24 03:00:17;;;;;;;0.70;0.70;;;;;;;;;;1823569;78;26285;-42
2022/10/24 03:02:44;;;;;;;0.68;0.68;;;;;;;;;;1836203;77;26321;-46
2022/10/24 03:05:11;;;;;;;0.70;0.70;;;;;;;;;;1857281;77;26251;-42
2022/10/24 03:07:39;;;;;;;0.68;0.68;;;;;;;;;;1857608;77;26313;-46
2022/10/24 03:10:06;;;;;;;0.70;0.70;;;;;;;;;;1857585;77;26750;-45
2022/10/24 03:12:33;;;;;;;0.75;0.75;;;;;;;;;;1853260;77;26321;-42
2022/10/24 03:15:01;;;;;;;0.70;0.70;;;;;;;;;;1857461;77;26298;-44
2022/10/24 03:17:28;;;;;;;0.80;0.80;;;;;;;;;;1855207;77;26321;-41
2022/10/24 03:19:55;;;;;;;0.50;0.50;;;;;;;;;;1857538;77;26495;-45
2022/10/24 03:22:22;;;;;;;0.70;0.70;;;;;;;;;;1856555;77;26262;-48
2022/10/24 03:24:50;;;;;;;0.57;0.57;;;;;;;;;;1864176;76;26215;-47
2022/10/24 03:27:17;;;;;;;1.37;0.65;;;;;;;;;;1855752;77;26334;-42
2022/10/24 03:29:44;;;;;;;0.70;0.70;;;;;;;;;;1857650;77;26277;-45
2022/10/24 03:32:11;;;;;;;0.82;0.68;;;;;;;;;;1857518;77;26353;-47
2022/10/24 03:34:39;;;;;;;0.70;0.70;;;;;;;;;;1857369;77;26195;-47
2022/10/24 03:37:06;;;;;;;0.57;0.57;;;;;;;;;;1857706;77;26259;-45
2022/10/24 03:39:34;;;;;;;0.55;0.55;;;;;;;;;;1857787;77;26215;-49
2022/10/24 03:42:01;;;;;;;2.25;0.70;;;;;;;;;;1857662;77;26755;-41
2022/10/24 03:44:28;;;;;;;0.68;0.68;;;;;;;;;;1852700;77;26267;-46
2022/10/24 03:46:56;;;;;;;0.50;0.50;;;;;;;;;;1848518;77;26223;-56
2022/10/24 03:49:23;;;;;;;0.60;0.60;;;;;;;;;;1856575;77;26231;-52
2022/10/24 03:51:50;;;;;;;0.40;0.40;;;;;;;;;;1865652;76;26731;-53
2022/10/24 03:54:17;;;;;;;0.60;0.60;;;;;;;;;;1857609;76;26271;-53
2022/10/24 03:56:46;;;;;;;0.60;0.60;;;;;;;;;;1856975;77;26204;-44
2022/10/24 03:59:14;;;;;;;0.70;0.70;;;;;;;;;;1857814;77;26287;-46
2022/10/24 04:01:41;;;;;;;0.68;0.50;;;;;;;;;;1854959;77;26308;-42
2022/10/24 04:04:08;;;;;;;0.40;0.40;;;;;;;;;;1834404;77;26291;-42
2022/10/24 04:06:35;;;;;;;0.47;0.47;;;;;;;;;;1811366;78;25853;-41
2022/10/24 04:09:03;;;;;;;0.37;0.37;;;;;;;;;;1811632;79;25616;-47
2022/10/24 04:11:31;;;;;;;0.60;0.60;;;;;;;;;;1814583;79;26283;-47
2022/10/24 04:13:59;;;;;;;0.53;0.40;;;;;;;;;;1813964;79;26325;-41
2022/10/24 04:16:27;;;;;;;0.50;0.50;;;;;;;;;;1814708;79;26279;-42
2022/10/24 04:18:54;;;;;;;0.37;0.37;;;;;;;;;;1812122;77;26221;-41
2022/10/24 04:21:21;;;;;;;0.60;0.60;;;;;;;;;;1812869;79;26330;-43
2022/10/24 04:23:49;;;;;;;0.40;0.40;;;;;;;;;;1818113;78;26326;-42
2022/10/24 04:26:16;;;;;;;1.30;0.50;;;;;;;;;;1813888;79;26213;-42
2022/10/24 04:28:45;;;;;;;0.50;0.50;;;;;;;;;;1819530;77;26728;-45
2022/10/24 04:31:13;;;;;;;2.25;0.70;;;;;;;;;;1828772;78;26794;-44
2022/10/24 04:33:40;;;;;;;2.15;0.40;;;;;;;;;;1814861;79;26318;-57
2022/10/24 04:36:08;;;;;;;1.70;0.68;;;;;;;;;;1814459;79;26555;-49
2022/10/24 04:38:35;;;;;;;1.87;0.50;;;;;;;;;;1814653;79;26314;-45
2022/10/24 04:41:03;;;;;;;0.72;0.50;;;;;;;;;;1811354;77;26345;-45
2022/10/24 04:43:30;;;;;;;1.15;0.50;;;;;;;;;;1805944;79;26255;-41
2022/10/24 04:45:57;;;;;;;1.50;0.53;;;;;;;;;;1812888;79;26212;-42
2022/10/24 04:48:25;;;;;;;0.95;0.70;;;;;;;;;;1811125;78;26794;-47
2022/10/24 04:50:52;;;;;;;1.65;0.68;;;;;;;;;;1810724;77;26577;-42
2022/10/24 04:53:19;;;;;;;0.68;0.68;;;;;;;;;;1811479;79;26256;-44
2022/10/24 04:55:46;;;;;;;1.15;0.50;;;;;;;;;;1811903;77;26243;-44
2022/10/24 04:58:14;;;;;;;1.82;0.50;;;;;;;;;;1813612;79;26272;-44
2022/10/24 05:00:45;;;;;;;0.50;0.50;;;;;;;;;;1812488;79;26267;-43
2022/10/24 05:03:10;;;;;;;3.70;0.60;;;;;;;;;;1811010;77;26288;-45
2022/10/24 05:05:37;;;;;;;8.98;0.70;;;;;;;;;;1851455;77;26240;-43
2022/10/24 05:08:04;;;;;;;1.72;0.50;;;;;;;;;;1856719;77;27174;-47
2022/10/24 05:10:32;;;;;;;1.95;0.50;;;;;;;;;;1856869;77;26211;-47
2022/10/24 05:12:59;;;;;;;2.10;0.57;;;;;;;;;;1855620;76;26226;-57
2022/10/24 05:15:28;;;;;;;0.50;0.50;;;;;;;;;;1851682;76;26669;-41
2022/10/24 05:17:56;;;;;;;2.50;0.30;;;;;;;;;;1865825;76;26264;-52
2022/10/24 05:20:23;;;;;;;5.78;0.70;;;;;;;;;;1857348;76;26657;-45
2022/10/24 05:22:50;;;;;;;0.72;0.37;;;;;;;;;;1857164;77;26328;-53
2022/10/24 05:25:18;;;;;;;0.53;0.40;;;;;;;;;;1857262;76;26252;-49
2022/10/24 05:27:45;;;;;;;3.15;0.40;;;;;;;;;;1865135;76;26793;-49
2022/10/24 05:30:13;;;;;;;2.45;0.40;;;;;;;;;;1869848;76;26746;-48
2022/10/24 05:32:40;;;;;;;0.47;0.42;;;;;;;;;;1860331;76;26793;-45
2022/10/24 05:35:08;;;;;;;0.47;0.40;;;;;;;;;;1844831;76;26330;-51
2022/10/24 05:37:35;;;;;;;1.85;0.50;;;;;;;;;;1848556;76;26173;-41
2022/10/24 05:40:03;;;;;;;0.93;0.40;;;;;;;;;;1862730;76;26219;-45
2022/10/24 05:42:30;;;;;;;6.12;0.68;;;;;;;;;;1859706;76;26515;-47
2022/10/24 05:44:58;;;;;;;5.20;0.55;;;;;;;;;;1862626;76;26194;-45
2022/10/24 05:47:26;;;;;;;0.45;0.45;;;;;;;;;;1857999;76;26205;-44
2022/10/24 05:49:53;;;;;;;2.90;0.42;;;;;;;;;;1857935;76;26289;-45
2022/10/24 05:52:20;;;;;;;1.57;0.40;;;;;;;;;;1860911;76;26223;-47
2022/10/24 05:54:47;;;;;;;0.60;0.50;;;;;;;;;;1854088;76;26212;-50
2022/10/24 05:57:15;;;;;;;0.65;0.30;;;;;;;;;;1841719;76;26317;-44
2022/10/24 05:59:42;;;;;;;1.95;0.78;;;;;;;;;;1861543;76;26279;-51
2022/10/24 06:02:13;;;;;;;1.35;0.50;;;;;;;;;;1854653;76;26202;-46
2022/10/24 06:04:41;;;;;;;1.25;0.35;;;;;;;;;;1854399;76;26600;-48
2022/10/24 06:07:08;;;;;;;3.37;0.40;;;;;;;;;;1847130;76;26670;-49
2022/10/24 06:09:35;;;;;;;2.15;0.40;;;;;;;;;;1849368;76;26310;-47
2022/10/24 06:12:03;;;;;;;0.30;0.30;;;;;;;;;;1857349;76;26322;-44
2022/10/24 06:14:30;;;;;;;0.95;0.30;;;;;;;;;;1849077;76;27026;-48
2022/10/24 06:16:57;;;;;;;0.30;0.30;;;;;;;;;;1855334;76;26858;-47
2022/10/24 06:19:24;;;;;;;0.40;0.40;;;;;;;;;;1848140;76;26241;-48
2022/10/24 06:21:52;;;;;;;0.40;0.30;;;;;;;;;;1849790;76;26312;-47
2022/10/24 06:24:19;;;;;;;0.95;0.50;;;;;;;;;;1850350;76;26227;-43
2022/10/24 06:26:46;;;;;;;0.30;0.30;;;;;;;;;;1846793;76;26330;-46
2022/10/24 06:29:13;;;;;;;4.47;0.50;;;;;;;;;;1845017;76;26248;-39
2022/10/24 06:31:41;;;;;;;0.25;0.25;;;;;;;;;;1846604;76;26223;-52
2022/10/24 06:34:08;;;;;;;0.33;0.20;;;;;;;;;;1830286;76;26277;-46
2022/10/24 06:36:36;;;;;;;2.20;0.40;;;;;;;;;;1850824;76;26207;-48
2022/10/24 06:39:03;;;;;;;1.37;0.20;;;;;;;;;;1852923;76;26594;-42
2022/10/24 06:41:30;;;;;;;0.88;0.50;;;;;;;;;;1862625;76;26256;-40
2022/10/24 06:43:57;;;;;;;0.42;0.40;;;;;;;;;;1868494;76;26746;-52
2022/10/24 06:46:25;;;;;;;0.30;0.30;;;;;;;;;;1874098;76;26627;-48
2022/10/24 06:48:55;;;;;;;1.27;0.20;;;;;;;;;;1851070;76;26314;-46
2022/10/24 06:51:23;;;;;;;2.95;0.98;;;;;;;;;;1841551;76;26258;-45
2022/10/24 06:53:50;;;;;;;0.30;0.30;;;;;;;;;;1848610;76;26870;-58
2022/10/24 06:56:18;;;;;;;0.40;0.40;;;;;;;;;;1857157;76;26213;-57
2022/10/24 06:58:45;;;;;;;0.30;0.30;;;;;;;;;;1861626;76;26312;-45
2022/10/24 07:01:14;;;;;;;0.50;0.23;;;;;;;;;;1835395;76;28199;-50
2022/10/24 07:03:42;;;;;;;0.30;0.30;;;;;;;;;;1846199;76;26770;-53
2022/10/24 07:06:20;;;;;;;0.20;0.20;;;;;;;;;;1851853;76;26303;-51
2022/10/24 07:08:47;;;;;;;0.20;0.20;;;;;;;;;;1857532;76;26270;-49
2022/10/24 07:11:15;;;;;;;0.55;0.25;;;;;;;;;;1871804;76;26284;-53
2022/10/24 07:13:42;;;;;;;2.37;0.30;;;;;;;;;;1857824;76;26661;-52
2022/10/24 07:16:09;;;;;;;0.30;0.30;;;;;;;;;;1852676;76;26828;-54
2022/10/24 07:18:37;;;;;;;0.30;0.30;;;;;;;;;;1867026;76;26268;-45
2022/10/24 07:21:06;;;;;;;1.15;0.30;;;;;;;;;;1853487;76;25542;-47
2022/10/24 07:23:34;;;;;;;0.65;0.23;;;;;;;;;;1862269;76;26220;-49
2022/10/24 07:26:05;;;;;;;0.20;0.20;;;;;;;;;;1848437;76;26728;-47
2022/10/24 07:28:33;;;;;;;0.17;0.17;;;;;;;;;;1847826;76;26747;-49
2022/10/24 07:31:01;;;;;;;0.20;0.20;;;;;;;;;;1844583;76;26246;-45
2022/10/24 07:33:29;;;;;;;2.27;0.35;;;;;;;;;;1851933;76;26278;-47
2022/10/24 07:35:56;;;;;;;0.15;0.15;;;;;;;;;;1849903;76;26334;-42
2022/10/24 07:38:23;;;;;;;0.10;0.10;;;;;;;;;;1854643;76;26230;-60
2022/10/24 07:40:50;;;;;;;0.10;0.10;;;;;;;;;;1837527;76;26233;-50
2022/10/24 07:43:18;;;;;;;0.30;0.20;;;;;;;;;;1857234;76;26358;-45
2022/10/24 07:45:45;;;;;;;0.30;0.30;;;;;;;;;;1854858;76;26271;-49
2022/10/24 07:48:13;;;;;;;0.10;0.10;;;;;;;;;;1850148;76;26998;-46
2022/10/24 07:50:41;;;;;;;0.30;0.30;;;;;;;;;;1854485;76;26669;-41
2022/10/24 07:53:09;;;;;;;0.25;0.10;;;;;;;;;;1846783;76;26337;-43
2022/10/24 07:55:40;;;;;;;0.70;0.20;;;;;;;;;;1856116;76;26686;-46
2022/10/24 07:58:07;;;;;;;0.23;0.23;;;;;;;;;;1845992;76;26270;-41
2022/10/24 08:00:35;;;;;;;1.50;0.20;;;;;;;;;;1845903;76;26279;-41
2022/10/24 08:03:03;;;;;;;0.17;0.17;;;;;;;;;;1849219;76;26497;-47
2022/10/24 08:05:30;;;;;;;0.20;0.20;;;;;;;;;;1850087;76;26361;-47
2022/10/24 08:07:57;;;;;;;1.37;0.30;;;;;;;;;;1842092;76;26798;-47
2022/10/24 08:10:24;;;;;;;0.23;0.23;;;;;;;;;;1861699;76;26256;-48
2022/10/24 08:12:52;;;;;;;0.30;0.30;;;;;;;;;;1869897;76;26200;-54
2022/10/24 08:15:19;;;;;;;0.10;0.10;;;;;;;;;;1847220;76;26344;-54
2022/10/24 08:17:47;;;;;;;0.20;0.20;;;;;;;;;;1825662;78;26295;-47
2022/10/24 08:20:14;;;;;;;0.20;0.20;;;;;;;;;;1812542;78;26306;-46
2022/10/24 08:22:42;;;;;;;0.10;0.10;;;;;;;;;;1837105;77;26285;-45
2022/10/24 08:25:10;;;;;;;0.10;0.10;;;;;;;;;;1818566;77;26334;-48
2022/10/24 08:27:37;;;;;;;0.20;0.20;;;;;;;;;;1808249;78;26928;-45
2022/10/24 08:30:05;;;;;;;0.25;0.25;;;;;;;;;;1810408;78;26821;-42
2022/10/24 08:32:32;;;;;;;0.25;0.25;;;;;;;;;;1831284;78;26268;-48
2022/10/24 08:34:59;;;;;;;0.10;0.10;;;;;;;;;;1811349;78;26342;-47
2022/10/24 08:37:27;;;;;;;0.10;0.10;;;;;;;;;;1828470;78;26327;-43
2022/10/24 08:39:54;;;;;;;0.20;0.20;;;;;;;;;;1812663;78;26280;-43
2022/10/24 08:42:22;;;;;;;0.10;0.10;;;;;;;;;;1808689;78;26228;-46
2022/10/24 08:44:50;;;;;;;0.53;0.30;;;;;;;;;;1836560;77;26318;-44
2022/10/24 08:47:19;;;;;;;0.45;0.20;;;;;;;;;;1838008;77;26200;-43
2022/10/24 08:49:57;;;;;;;0.20;0.20;;;;;;;;;;1845651;77;26511;-43
2022/10/24 08:52:42;;;;;;;0.30;0.08;;;;;;;;;;1848898;76;26194;-46
2022/10/24 08:55:12;;;;;;;0.10;0.10;;;;;;;;;;1856834;76;26222;-44
2022/10/24 08:57:41;;;;;;;0.13;0.13;;;;;;;;;;1853982;77;26693;-52
2022/10/24 09:00:10;;;;;;;0.10;0.10;;;;;;;;;;1838199;76;26268;-48
2022/10/24 09:02:38;;;;;;;0.28;0.28;;;;;;;;;;1833804;77;26254;-53
2022/10/24 09:05:19;;;;;;;1.55;0.15;;;;;;;;;;1839720;77;26276;-42
2022/10/24 09:07:48;;;;;;;0.05;0.05;;;;;;;;;;1837727;77;26256;-50
2022/10/24 09:10:19;;;;;;;0.20;0.20;;;;;;;;;;1827484;77;26224;-50
2022/10/24 09:12:46;;;;;;;0.10;0.10;;;;;;;;;;1829379;76;26248;-53
2022/10/24 09:15:15;;;;;;;0.10;0.10;;;;;;;;;;1823683;76;26378;-44
2022/10/24 09:17:43;;;;;;;0.10;0.10;;;;;;;;;;1822882;77;26352;-52
2022/10/24 09:20:21;;;;;;;0.13;0.13;;;;;;;;;;1823313;77;26268;-45
2022/10/24 09:22:48;;;;;;;0.20;0.20;;;;;;;;;;1825182;77;27063;-47
2022/10/24 09:25:17;;;;;;;2.20;0.28;;;;;;;;;;1829530;76;26299;-47
2022/10/24 09:27:44;;;;;;;1.55;0.20;;;;;;;;;;1821512;76;26330;-55
2022/10/24 09:30:13;;;;;;;1.35;0.20;;;;;;;;;;1827787;76;26342;-46
2022/10/24 09:32:40;;;;;;;0.20;0.20;;;;;;;;;;1827826;76;25857;-60
2022/10/24 09:35:09;;;;;;;0.20;0.20;;;;;;;;;;1827874;76;26312;-60
2022/10/24 09:37:44;;;;;;;0.10;0.10;;;;;;;;;;1827394;76;26208;-53
2022/10/24 09:40:31;;;;;;;0.30;0.30;;;;;;;;;;1826108;76;26318;-47
2022/10/24 09:43:12;;;;;;;0.10;0.10;;;;;;;;;;1824850;76;26840;-50
2022/10/24 09:45:41;;;;;;;0.20;0.20;;;;;;;;;;1798839;78;26092;-42
2022/10/24 09:48:21;;;;;;;0.30;0.30;;;;;;;;;;1829792;77;26616;-53
2022/10/24 09:50:50;;;;;;;0.60;0.20;;;;;;;;;;1824807;76;26249;-50
2022/10/24 09:53:22;;;;;;;0.10;0.10;;;;;;;;;;1829213;76;26216;-54
2022/10/24 09:55:50;;;;;;;0.10;0.10;;;;;;;;;;1825726;76;26305;-47
2022/10/24 09:58:19;;;;;;;0.30;0.17;;;;;;;;;;1823172;77;26244;-48
2022/10/24 10:00:48;;;;;;;0.20;0.20;;;;;;;;;;1824309;76;26669;-58
2022/10/24 10:03:20;;;;;;;0.20;0.20;;;;;;;;;;1824374;76;26280;-49
2022/10/24 10:05:48;;;;;;;0.20;0.20;;;;;;;;;;1825677;77;26197;-55
2022/10/24 10:08:17;;;;;;;1.65;0.15;;;;;;;;;;1826202;76;26290;-61
2022/10/24 10:10:45;;;;;;;0.10;0.10;;;;;;;;;;1824296;76;26267;-66
2022/10/24 10:13:18;;;;;;;1.37;0.20;;;;;;;;;;1818931;77;28219;-48
2022/10/24 10:15:48;;;;;;;1.07;0.20;;;;;;;;;;1830353;77;26279;-47
2022/10/24 10:18:35;;;;;;;0.10;0.10;;;;;;;;;;1829416;77;26233;-46
2022/10/24 10:21:10;;;;;;;0.20;0.20;;;;;;;;;;1828012;77;26575;-44
2022/10/24 10:23:39;;;;;;;0.20;0.20;;;;;;;;;;1794302;77;26314;-49
2022/10/24 10:26:07;;;;;;;0.20;0.20;;;;;;;;;;1826107;76;26346;-49
2022/10/24 10:28:36;;;;;;;0.13;0.13;;;;;;;;;;1827532;76;26686;-51
2022/10/24 10:31:04;;;;;;;0.10;0.10;;;;;;;;;;1828360;76;26728;-44
2022/10/24 10:33:35;;;;;;;0.15;0.15;;;;;;;;;;1827744;77;26264;-58
2022/10/24 10:36:06;;;;;;;0.08;0.08;;;;;;;;;;1824985;77;26276;-41
2022/10/24 10:38:37;;;;;;;0.40;0.20;;;;;;;;;;1824354;77;26325;-52
2022/10/24 10:41:06;;;;;;;0.33;0.20;;;;;;;;;;1813674;77;28248;-42
2022/10/24 10:43:38;;;;;;;1.37;0.95;;;;;;;;;;1818738;76;26317;-54
2022/10/24 10:46:22;;;;;;;0.93;0.30;;;;;;;;;;1829469;76;26294;-53
2022/10/24 10:49:08;;;;;;;1.27;0.40;;;;;;;;;;1826649;77;26293;-48
2022/10/24 10:51:36;;;;;;;0.45;0.30;;;;;;;;;;1827557;77;26712;-44
2022/10/24 10:54:08;;;;;;;0.55;0.37;;;;;;;;;;1825739;77;26802;-56
2022/10/24 10:56:43;;;;;;;0.35;0.35;;;;;;;;;;1829154;77;26230;-42
2022/10/24 10:59:17;;;;;;;1.75;0.30;;;;;;;;;;1829213;77;26491;-51
2022/10/24 11:02:04;;;;;;;0.45;0.37;;;;;;;;;;1825757;77;26267;-48
2022/10/24 11:04:33;;;;;;;0.37;0.37;;;;;;;;;;1825705;77;26260;-48
2022/10/24 11:07:02;;;;;;;0.23;0.20;;;;;;;;;;1824635;77;25967;-47
2022/10/24 11:09:31;;;;;;;0.20;0.20;;;;;;;;;;1828372;77;26698;-44
2022/10/24 11:12:00;;;;;;;0.35;0.33;;;;;;;;;;1823690;77;26184;-41
2022/10/24 11:14:28;;;;;;;0.30;0.30;;;;;;;;;;1828785;77;26212;-45
2022/10/24 11:16:57;;;;;;;0.30;0.30;;;;;;;;;;1831558;77;26260;-53
2022/10/24 11:19:38;;;;;;;0.30;0.30;;;;;;;;;;1823443;76;26325;-44
2022/10/24 11:22:06;;;;;;;0.40;0.40;;;;;;;;;;1828008;77;26303;-50
2022/10/24 11:24:35;;;;;;;0.25;0.23;;;;;;;;;;1825536;76;26273;-56
2022/10/24 11:27:10;;;;;;;0.25;0.25;;;;;;;;;;1825620;77;26376;-46
2022/10/24 11:29:41;;;;;;;0.20;0.20;;;;;;;;;;1824378;76;26841;-46
2022/10/24 11:32:19;;;;;;;0.20;0.17;;;;;;;;;;1825934;77;26300;-45
2022/10/24 11:34:49;;;;;;;0.20;0.20;;;;;;;;;;1806724;77;26829;-47
2022/10/24 11:37:35;;;;;;;0.30;0.30;;;;;;;;;;1827697;77;26232;-44
2022/10/24 11:40:12;;;;;;;0.30;0.30;;;;;;;;;;1828826;77;26264;-42
2022/10/24 11:42:57;;;;;;;0.20;0.20;;;;;;;;;;1825414;77;26226;-43
2022/10/24 11:45:26;;;;;;;0.40;0.40;;;;;;;;;;1825455;77;26213;-49
2022/10/24 11:47:58;;;;;;;0.20;0.20;;;;;;;;;;1827724;77;26251;-42
2022/10/24 11:50:36;;;;;;;0.20;0.20;;;;;;;;;;1822591;77;26279;-52
2022/10/24 11:53:19;;;;;;;0.10;0.10;;;;;;;;;;1828283;77;26287;-41
2022/10/24 11:55:48;;;;;;;0.15;0.15;;;;;;;;;;1830837;76;26626;-50
2022/10/24 11:58:17;;;;;;;0.28;0.28;;;;;;;;;;1829917;77;26738;-41
2022/10/24 12:01:01;;;;;;;0.20;0.20;;;;;;;;;;1826070;77;26890;-45
2022/10/24 12:03:32;;;;;;;0.40;0.40;;;;;;;;;;1823056;77;26311;-46
2022/10/24 12:06:04;;;;;;;0.28;0.20;;;;;;;;;;1828698;77;26268;-46
2022/10/24 12:08:36;;;;;;;0.20;0.20;;;;;;;;;;1825382;77;26413;-50
2022/10/24 12:11:05;;;;;;;0.33;0.33;;;;;;;;;;1825286;77;26322;-43
2022/10/24 12:13:33;;;;;;;0.25;0.25;;;;;;;;;;1827313;77;26364;-47
2022/10/24 12:16:05;;;;;;;0.20;0.20;;;;;;;;;;1826035;77;25864;-48
2022/10/24 12:18:37;;;;;;;0.30;0.30;;;;;;;;;;1823254;77;26307;-47
2022/10/24 12:21:06;;;;;;;0.20;0.20;;;;;;;;;;1828084;77;26365;-64
2022/10/24 12:23:34;;;;;;;0.40;0.40;;;;;;;;;;1830723;77;26337;-43
2022/10/24 12:26:02;;;;;;;0.20;0.20;;;;;;;;;;1825449;77;26678;-51
2022/10/24 12:28:30;;;;;;;0.30;0.30;;;;;;;;;;1823851;76;26831;-52
2022/10/24 12:31:11;;;;;;;0.20;0.20;;;;;;;;;;1825998;76;26323;-50
2022/10/24 12:33:39;;;;;;;0.20;0.20;;;;;;;;;;1828318;77;26372;-42
2022/10/24 12:36:06;;;;;;;0.30;0.30;;;;;;;;;;1821750;77;26550;-42
2022/10/24 12:38:36;;;;;;;0.30;0.30;;;;;;;;;;1826231;77;26214;-52
2022/10/24 12:41:08;;;;;;;0.30;0.30;;;;;;;;;;1826111;77;26299;-44
2022/10/24 12:43:39;;;;;;;0.25;0.25;;;;;;;;;;1823625;76;26724;-41
2022/10/24 12:46:19;;;;;;;0.23;0.23;;;;;;;;;;1828783;77;26349;-51
2022/10/24 12:48:59;;;;;;;0.53;0.30;;;;;;;;;;1823220;77;26315;-46
2022/10/24 12:51:33;;;;;;;0.35;0.35;;;;;;;;;;1825239;76;26305;-63
2022/10/24 12:54:02;;;;;;;0.65;0.30;;;;;;;;;;1824292;76;27299;-43
2022/10/24 12:56:31;;;;;;;0.20;0.20;;;;;;;;;;1829121;76;26305;-50
2022/10/24 12:59:03;;;;;;;0.30;0.30;;;;;;;;;;1826018;77;26284;-51
2022/10/24 13:01:36;;;;;;;0.30;0.30;;;;;;;;;;1828501;77;26330;-51
2022/10/24 13:04:05;;;;;;;0.30;0.30;;;;;;;;;;1822110;77;25657;-43
2022/10/24 13:06:37;;;;;;;0.30;0.30;;;;;;;;;;1802258;77;26642;-47
2022/10/24 13:09:09;;;;;;;0.30;0.30;;;;;;;;;;1827341;76;26343;-54
2022/10/24 13:11:38;;;;;;;0.25;0.25;;;;;;;;;;1826213;76;26698;-54
2022/10/24 13:14:23;;;;;;;0.33;0.33;;;;;;;;;;1826203;77;26257;-48
2022/10/24 13:16:52;;;;;;;0.40;0.40;;;;;;;;;;1828412;76;26267;-57
2022/10/24 13:19:23;;;;;;;0.20;0.20;;;;;;;;;;1821005;77;26243;-54
2022/10/24 13:21:53;;;;;;;0.33;0.20;;;;;;;;;;1828554;77;26229;-50
2022/10/24 13:24:22;;;;;;;1.45;0.30;;;;;;;;;;1825672;76;26275;-56
2022/10/24 13:26:52;;;;;;;0.28;0.28;;;;;;;;;;1825071;77;26325;-51
2022/10/24 13:29:24;;;;;;;0.30;0.30;;;;;;;;;;1824685;76;26295;-55
2022/10/24 13:31:56;;;;;;;0.30;0.30;;;;;;;;;;1828491;78;26956;-56
2022/10/24 13:34:28;;;;;;;2.50;0.20;;;;;;;;;;1822052;77;26324;-50
2022/10/24 13:36:59;;;;;;;0.23;0.23;;;;;;;;;;1826128;77;26487;-48
2022/10/24 13:39:28;;;;;;;4.10;0.62;;;;;;;;;;1820425;76;26276;-48
2022/10/24 13:41:57;;;;;;;4.60;0.50;;;;;;;;;;1823438;77;26345;-50
2022/10/24 13:44:28;;;;;;;4.08;0.50;;;;;;;;;;1823899;78;26232;-64
2022/10/24 13:47:12;;;;;;;1.80;0.50;;;;;;;;;;1826946;77;26314;-56
2022/10/24 13:49:41;;;;;;;3.30;0.80;;;;;;;;;;1827135;77;26280;-50
2022/10/24 13:52:10;;;;;;;4.62;0.57;;;;;;;;;;1819855;77;26286;-49
2022/10/24 13:54:38;;;;;;;10.23;0.68;;;;;;;;;;1824279;76;26285;-47
2022/10/24 13:57:07;;;;;;;4.85;0.80;;;;;;;;;;1826141;76;26257;-49
2022/10/24 13:59:40;;;;;;;1.65;0.57;;;;;;;;;;1824410;76;26224;-44
2022/10/24 14:02:06;;;;;;;7.47;0.68;;;;;;;;;;1825320;76;26335;-51
2022/10/24 14:04:34;;;;;;;0.98;0.70;;;;;;;;;;1825919;77;26784;-45
2022/10/24 14:07:03;;;;;;;2.77;0.40;;;;;;;;;;1829030;76;26266;-46
2022/10/24 14:09:32;;;;;;;3.17;0.50;;;;;;;;;;1838754;76;26303;-47
2022/10/24 14:11:59;;;;;;;0.80;0.45;;;;;;;;;;1840061;76;26354;-57
2022/10/24 14:14:28;;;;;;;1.57;0.47;;;;;;;;;;1832868;76;26253;-47
2022/10/24 14:17:06;;;;;;;6.30;0.90;;;;;;;;;;1839092;76;26216;-51
2022/10/24 14:19:35;;;;;;;0.55;0.50;;;;;;;;;;1830504;76;26385;-45
2022/10/24 14:22:02;;;;;;;0.70;0.50;;;;;;;;;;1836494;76;26304;-47
2022/10/24 14:24:31;;;;;;;0.30;0.30;;;;;;;;;;1836196;76;27589;-58
2022/10/24 14:26:59;;;;;;;0.47;0.40;;;;;;;;;;1834605;76;26677;-46
2022/10/24 14:29:30;;;;;;;0.60;0.60;;;;;;;;;;1837447;76;26200;-55
2022/10/24 14:31:58;;;;;;;0.65;0.40;;;;;;;;;;1838282;76;26319;-48
2022/10/24 14:34:25;;;;;;;0.82;0.30;;;;;;;;;;1835813;76;26306;-46
2022/10/24 14:36:54;;;;;;;0.65;0.30;;;;;;;;;;1839228;76;26491;-54
2022/10/24 14:39:25;;;;;;;0.70;0.50;;;;;;;;;;1837013;76;26355;-55
2022/10/24 14:41:53;;;;;;;2.00;0.60;;;;;;;;;;1832921;76;26331;-52
2022/10/24 14:44:22;;;;;;;0.60;0.60;;;;;;;;;;1836736;76;26751;-48
2022/10/24 14:47:07;;;;;;;0.45;0.45;;;;;;;;;;1831988;76;26283;-49
2022/10/24 14:49:38;;;;;;;4.03;0.82;;;;;;;;;;1834148;76;26272;-52
2022/10/24 14:52:12;;;;;;;0.40;0.40;;;;;;;;;;1837428;76;26249;-49
2022/10/24 14:54:41;;;;;;;0.60;0.60;;;;;;;;;;1839127;76;26257;-49
2022/10/24 14:57:10;;;;;;;0.60;0.60;;;;;;;;;;1844769;76;26219;-48